sensor_id;sensor_type;location;lat;lon;timestamp;temperature;humidity
7002;DHT22;3541;53.230;10.518;2024-02-26T00:01:47;5.00;99.90
7002;DHT22;3541;53.230;10.518;2024-02-26T00:04:14;5.00;99.90
7002;DHT22;3541;53.230;10.518;2024-02-26T00:06:41;5.00;99.90
7002;DHT22;3541;53.230;10.518;2024-02-26T00:09:08;5.00;99.90
7002;DHT22;3541;53.230;10.518;2024-02-26T00:11:35;5.10;99.90
7002;DHT22;3541;53.230;10.518;2024-02-26T00:14:02;5.10;99.90
7002;DHT22;3541;53.230;10.518;2024-02-26T00:16:29;5.10;99.90
7002;DHT22;3541;53.230;10.518;2024-02-26T00:18:56;5.10;99.90
7002;DHT22;3541;53.230;10.518;2024-02-26T00:21:23;5.10;99.90
7002;DHT22;3541;53.230;10.518;2024-02-26T00:23:50;5.00;99.90
7002;DHT22;3541;53.230;10.518;2024-02-26T00:26:16;4.90;99.90
7002;DHT22;3541;53.230;10.518;2024-02-26T00:28:43;5.00;99.90
7002;DHT22;3541;53.230;10.518;2024-02-26T00:31:10;4.90;99.90
7002;DHT22;3541;53.230;10.518;2024-02-26T00:33:37;4.90;99.90
7002;DHT22;3541;53.230;10.518;2024-02-26T00:36:05;4.90;99.90
7002;DHT22;3541;53.230;10.518;2024-02-26T00:38:32;4.90;99.90
7002;DHT22;3541;53.230;10.518;2024-02-26T00:40:59;4.80;99.90
7002;DHT22;3541;53.230;10.518;2024-02-26T00:43:25;4.80;99.90
7002;DHT22;3541;53.230;10.518;2024-02-26T00:45:52;4.80;99.90
7002;DHT22;3541;53.230;10.518;2024-02-26T00:48:18;4.70;99.90
7002;DHT22;3541;53.230;10.518;2024-02-26T00:50:45;4.70;99.90
7002;DHT22;3541;53.230;10.518;2024-02-26T00:53:13;4.70;99.90
7002;DHT22;3541;53.230;10.518;2024-02-26T00:55:39;4.60;99.90
7002;DHT22;3541;53.230;10.518;2024-02-26T00:58:06;4.60;99.90
7002;DHT22;3541;53.230;10.518;2024-02-26T01:00:32;4.70;99.90
7002;DHT22;3541;53.230;10.518;2024-02-26T01:02:59;4.80;99.90
7002;DHT22;3541;53.230;10.518;2024-02-26T01:05:25;4.80;99.90
7002;DHT22;3541;53.230;10.518;2024-02-26T01:07:52;4.80;99.90
7002;DHT22;3541;53.230;10.518;2024-02-26T01:10:20;4.80;99.90
7002;DHT22;3541;53.230;10.518;2024-02-26T01:12:46;4.70;99.90
7002;DHT22;3541;53.230;10.518;2024-02-26T01:15:14;4.70;99.90
7002;DHT22;3541;53.230;10.518;2024-02-26T01:17:40;4.60;99.90
7002;DHT22;3541;53.230;10.518;2024-02-26T01:20:07;4.70;99.90
7002;DHT22;3541;53.230;10.518;2024-02-26T01:22:35;4.70;99.90
7002;DHT22;3541;53.230;10.518;2024-02-26T01:25:01;4.60;99.90
7002;DHT22;3541;53.230;10.518;2024-02-26T01:27:29;4.50;99.90
7002;DHT22;3541;53.230;10.518;2024-02-26T01:29:56;4.60;99.90
7002;DHT22;3541;53.230;10.518;2024-02-26T01:32:23;4.50;99.90
7002;DHT22;3541;53.230;10.518;2024-02-26T01:34:49;4.50;99.90
7002;DHT22;3541;53.230;10.518;2024-02-26T01:37:16;4.40;99.90
7002;DHT22;3541;53.230;10.518;2024-02-26T01:39:42;4.50;99.90
7002;DHT22;3541;53.230;10.518;2024-02-26T01:42:09;4.50;99.90
7002;DHT22;3541;53.230;10.518;2024-02-26T01:44:37;4.40;99.90
7002;DHT22;3541;53.230;10.518;2024-02-26T01:47:05;4.40;99.90
7002;DHT22;3541;53.230;10.518;2024-02-26T01:49:32;4.40;99.90
7002;DHT22;3541;53.230;10.518;2024-02-26T01:51:59;4.30;99.90
7002;DHT22;3541;53.230;10.518;2024-02-26T01:54:26;4.40;99.90
7002;DHT22;3541;53.230;10.518;2024-02-26T01:56:52;4.50;99.90
7002;DHT22;3541;53.230;10.518;2024-02-26T01:59:19;4.50;99.90
7002;DHT22;3541;53.230;10.518;2024-02-26T02:01:51;4.40;99.90
7002;DHT22;3541;53.230;10.518;2024-02-26T02:04:19;4.50;99.90
7002;DHT22;3541;53.230;10.518;2024-02-26T02:06:46;4.40;99.90
7002;DHT22;3541;53.230;10.518;2024-02-26T02:09:13;4.40;99.90
7002;DHT22;3541;53.230;10.518;2024-02-26T02:11:40;4.40;99.90
7002;DHT22;3541;53.230;10.518;2024-02-26T02:14:07;4.40;99.90
7002;DHT22;3541;53.230;10.518;2024-02-26T02:16:34;4.30;99.90
7002;DHT22;3541;53.230;10.518;2024-02-26T02:19:02;4.20;99.90
7002;DHT22;3541;53.230;10.518;2024-02-26T02:21:29;4.10;99.90
7002;DHT22;3541;53.230;10.518;2024-02-26T02:23:56;4.10;99.90
7002;DHT22;3541;53.230;10.518;2024-02-26T02:26:23;4.10;99.90
7002;DHT22;3541;53.230;10.518;2024-02-26T02:28:50;4.20;99.90
7002;DHT22;3541;53.230;10.518;2024-02-26T02:31:17;4.10;99.90
7002;DHT22;3541;53.230;10.518;2024-02-26T02:33:44;4.10;99.90
7002;DHT22;3541;53.230;10.518;2024-02-26T02:36:11;4.20;99.90
7002;DHT22;3541;53.230;10.518;2024-02-26T02:38:48;4.20;99.90
7002;DHT22;3541;53.230;10.518;2024-02-26T02:41:15;4.10;99.90
7002;DHT22;3541;53.230;10.518;2024-02-26T02:43:42;4.10;99.90
7002;DHT22;3541;53.230;10.518;2024-02-26T02:46:08;4.10;99.90
7002;DHT22;3541;53.230;10.518;2024-02-26T02:48:37;4.10;99.90
7002;DHT22;3541;53.230;10.518;2024-02-26T02:51:04;4.20;99.90
7002;DHT22;3541;53.230;10.518;2024-02-26T02:53:30;4.20;99.90
7002;DHT22;3541;53.230;10.518;2024-02-26T02:55:58;4.20;99.90
7002;DHT22;3541;53.230;10.518;2024-02-26T02:58:25;4.10;99.90
7002;DHT22;3541;53.230;10.518;2024-02-26T03:00:51;4.00;99.90
7002;DHT22;3541;53.230;10.518;2024-02-26T03:03:20;3.90;99.90
7002;DHT22;3541;53.230;10.518;2024-02-26T03:05:49;4.00;99.90
7002;DHT22;3541;53.230;10.518;2024-02-26T03:08:16;4.10;99.90
7002;DHT22;3541;53.230;10.518;2024-02-26T03:10:42;4.10;99.90
7002;DHT22;3541;53.230;10.518;2024-02-26T03:13:10;4.10;99.90
7002;DHT22;3541;53.230;10.518;2024-02-26T03:15:37;4.10;99.90
7002;DHT22;3541;53.230;10.518;2024-02-26T03:18:03;4.10;99.90
7002;DHT22;3541;53.230;10.518;2024-02-26T03:20:30;4.10;99.90
7002;DHT22;3541;53.230;10.518;2024-02-26T03:22:57;4.00;99.90
7002;DHT22;3541;53.230;10.518;2024-02-26T03:25:23;4.00;99.90
7002;DHT22;3541;53.230;10.518;2024-02-26T03:27:50;4.00;99.90
7002;DHT22;3541;53.230;10.518;2024-02-26T03:30:18;3.90;99.90
7002;DHT22;3541;53.230;10.518;2024-02-26T03:32:44;3.90;99.90
7002;DHT22;3541;53.230;10.518;2024-02-26T03:35:12;3.90;99.90
7002;DHT22;3541;53.230;10.518;2024-02-26T03:37:38;3.90;99.90
7002;DHT22;3541;53.230;10.518;2024-02-26T03:40:06;3.90;99.90
7002;DHT22;3541;53.230;10.518;2024-02-26T03:42:33;3.80;99.90
7002;DHT22;3541;53.230;10.518;2024-02-26T03:45:00;3.80;99.90
7002;DHT22;3541;53.230;10.518;2024-02-26T03:47:27;3.80;99.90
7002;DHT22;3541;53.230;10.518;2024-02-26T03:49:54;3.80;99.90
7002;DHT22;3541;53.230;10.518;2024-02-26T03:52:21;3.90;99.90
7002;DHT22;3541;53.230;10.518;2024-02-26T03:54:47;3.70;99.90
7002;DHT22;3541;53.230;10.518;2024-02-26T03:57:14;3.80;99.90
7002;DHT22;3541;53.230;10.518;2024-02-26T03:59:40;3.70;99.90
7002;DHT22;3541;53.230;10.518;2024-02-26T04:02:07;3.80;99.90
7002;DHT22;3541;53.230;10.518;2024-02-26T04:04:36;3.80;99.90
7002;DHT22;3541;53.230;10.518;2024-02-26T04:07:03;3.80;99.90
7002;DHT22;3541;53.230;10.518;2024-02-26T04:09:31;3.80;99.90
7002;DHT22;3541;53.230;10.518;2024-02-26T04:11:57;3.80;99.90
7002;DHT22;3541;53.230;10.518;2024-02-26T04:14:24;3.80;99.90
7002;DHT22;3541;53.230;10.518;2024-02-26T04:16:51;3.80;99.90
7002;DHT22;3541;53.230;10.518;2024-02-26T04:19:19;3.80;99.90
7002;DHT22;3541;53.230;10.518;2024-02-26T04:21:47;3.70;99.90
7002;DHT22;3541;53.230;10.518;2024-02-26T04:24:14;3.70;99.90
7002;DHT22;3541;53.230;10.518;2024-02-26T04:26:41;3.80;99.90
7002;DHT22;3541;53.230;10.518;2024-02-26T04:29:08;3.70;99.90
7002;DHT22;3541;53.230;10.518;2024-02-26T04:31:34;3.70;99.90
7002;DHT22;3541;53.230;10.518;2024-02-26T04:34:01;3.70;99.90
7002;DHT22;3541;53.230;10.518;2024-02-26T04:36:27;3.70;99.90
7002;DHT22;3541;53.230;10.518;2024-02-26T04:38:55;3.70;99.90
7002;DHT22;3541;53.230;10.518;2024-02-26T04:41:22;3.70;99.90
7002;DHT22;3541;53.230;10.518;2024-02-26T04:43:48;3.70;99.90
7002;DHT22;3541;53.230;10.518;2024-02-26T04:46:15;3.80;99.90
7002;DHT22;3541;53.230;10.518;2024-02-26T04:48:42;3.80;99.90
7002;DHT22;3541;53.230;10.518;2024-02-26T04:51:10;3.80;99.90
7002;DHT22;3541;53.230;10.518;2024-02-26T04:53:37;3.80;99.90
7002;DHT22;3541;53.230;10.518;2024-02-26T04:56:05;3.80;99.90
7002;DHT22;3541;53.230;10.518;2024-02-26T04:58:32;3.80;99.90
7002;DHT22;3541;53.230;10.518;2024-02-26T05:00:59;3.80;99.90
7002;DHT22;3541;53.230;10.518;2024-02-26T05:03:25;3.70;99.90
7002;DHT22;3541;53.230;10.518;2024-02-26T05:05:52;3.70;99.90
7002;DHT22;3541;53.230;10.518;2024-02-26T05:08:18;3.70;99.90
7002;DHT22;3541;53.230;10.518;2024-02-26T05:10:45;3.70;99.90
7002;DHT22;3541;53.230;10.518;2024-02-26T05:13:13;3.70;99.90
7002;DHT22;3541;53.230;10.518;2024-02-26T05:15:40;3.70;99.90
7002;DHT22;3541;53.230;10.518;2024-02-26T05:18:07;3.70;99.90
7002;DHT22;3541;53.230;10.518;2024-02-26T05:20:34;3.70;99.90
7002;DHT22;3541;53.230;10.518;2024-02-26T05:23:01;3.70;99.90
7002;DHT22;3541;53.230;10.518;2024-02-26T05:25:29;3.70;99.90
7002;DHT22;3541;53.230;10.518;2024-02-26T05:27:55;3.70;99.90
7002;DHT22;3541;53.230;10.518;2024-02-26T05:30:23;3.70;99.90
7002;DHT22;3541;53.230;10.518;2024-02-26T05:32:50;3.70;99.90
7002;DHT22;3541;53.230;10.518;2024-02-26T05:35:16;3.70;99.90
7002;DHT22;3541;53.230;10.518;2024-02-26T05:37:43;3.70;99.90
7002;DHT22;3541;53.230;10.518;2024-02-26T05:40:10;3.70;99.90
7002;DHT22;3541;53.230;10.518;2024-02-26T05:42:37;3.70;99.90
7002;DHT22;3541;53.230;10.518;2024-02-26T05:45:04;3.70;99.90
7002;DHT22;3541;53.230;10.518;2024-02-26T05:47:33;3.70;99.90
7002;DHT22;3541;53.230;10.518;2024-02-26T05:50:00;3.70;99.90
7002;DHT22;3541;53.230;10.518;2024-02-26T05:52:26;3.70;99.90
7002;DHT22;3541;53.230;10.518;2024-02-26T05:54:53;3.70;99.90
7002;DHT22;3541;53.230;10.518;2024-02-26T05:57:20;3.70;99.90
7002;DHT22;3541;53.230;10.518;2024-02-26T05:59:46;3.80;99.90
7002;DHT22;3541;53.230;10.518;2024-02-26T06:02:13;3.80;99.90
7002;DHT22;3541;53.230;10.518;2024-02-26T06:04:41;3.80;99.90
7002;DHT22;3541;53.230;10.518;2024-02-26T06:07:07;3.80;99.90
7002;DHT22;3541;53.230;10.518;2024-02-26T06:09:34;3.80;99.90
7002;DHT22;3541;53.230;10.518;2024-02-26T06:12:00;3.80;99.90
7002;DHT22;3541;53.230;10.518;2024-02-26T06:14:27;3.90;99.90
7002;DHT22;3541;53.230;10.518;2024-02-26T06:16:54;3.90;99.90
7002;DHT22;3541;53.230;10.518;2024-02-26T06:19:20;3.90;99.90
7002;DHT22;3541;53.230;10.518;2024-02-26T06:21:48;3.90;99.90
7002;DHT22;3541;53.230;10.518;2024-02-26T06:24:16;3.90;99.90
7002;DHT22;3541;53.230;10.518;2024-02-26T06:26:42;3.90;99.90
7002;DHT22;3541;53.230;10.518;2024-02-26T06:29:09;3.80;99.90
7002;DHT22;3541;53.230;10.518;2024-02-26T06:31:35;3.80;99.90
7002;DHT22;3541;53.230;10.518;2024-02-26T06:34:02;3.80;99.90
7002;DHT22;3541;53.230;10.518;2024-02-26T06:36:29;3.70;99.90
7002;DHT22;3541;53.230;10.518;2024-02-26T06:38:58;3.70;99.90
7002;DHT22;3541;53.230;10.518;2024-02-26T06:41:25;3.60;99.90
7002;DHT22;3541;53.230;10.518;2024-02-26T06:43:53;3.70;99.90
7002;DHT22;3541;53.230;10.518;2024-02-26T06:46:19;3.70;99.90
7002;DHT22;3541;53.230;10.518;2024-02-26T06:48:48;3.70;99.90
7002;DHT22;3541;53.230;10.518;2024-02-26T06:51:14;3.70;99.90
7002;DHT22;3541;53.230;10.518;2024-02-26T06:53:41;3.70;99.90
7002;DHT22;3541;53.230;10.518;2024-02-26T06:56:09;3.70;99.90
7002;DHT22;3541;53.230;10.518;2024-02-26T06:58:35;3.80;99.90
7002;DHT22;3541;53.230;10.518;2024-02-26T07:01:02;3.80;99.90
7002;DHT22;3541;53.230;10.518;2024-02-26T07:03:29;3.80;99.90
7002;DHT22;3541;53.230;10.518;2024-02-26T07:05:55;3.90;99.90
7002;DHT22;3541;53.230;10.518;2024-02-26T07:08:22;3.80;99.90
7002;DHT22;3541;53.230;10.518;2024-02-26T07:10:49;3.80;99.90
7002;DHT22;3541;53.230;10.518;2024-02-26T07:13:16;3.80;99.90
7002;DHT22;3541;53.230;10.518;2024-02-26T07:15:43;3.80;99.90
7002;DHT22;3541;53.230;10.518;2024-02-26T07:18:10;3.80;99.90
7002;DHT22;3541;53.230;10.518;2024-02-26T07:20:36;3.80;99.90
7002;DHT22;3541;53.230;10.518;2024-02-26T07:23:03;3.80;99.90
7002;DHT22;3541;53.230;10.518;2024-02-26T07:25:30;3.90;99.90
7002;DHT22;3541;53.230;10.518;2024-02-26T07:27:56;3.90;99.90
7002;DHT22;3541;53.230;10.518;2024-02-26T07:30:24;3.80;99.90
7002;DHT22;3541;53.230;10.518;2024-02-26T07:32:51;3.80;99.90
7002;DHT22;3541;53.230;10.518;2024-02-26T07:35:18;3.90;99.90
7002;DHT22;3541;53.230;10.518;2024-02-26T07:37:47;3.90;99.90
7002;DHT22;3541;53.230;10.518;2024-02-26T07:40:14;3.90;99.90
7002;DHT22;3541;53.230;10.518;2024-02-26T07:42:41;4.00;99.90
7002;DHT22;3541;53.230;10.518;2024-02-26T07:45:08;4.00;99.90
7002;DHT22;3541;53.230;10.518;2024-02-26T07:47:36;4.10;99.90
7002;DHT22;3541;53.230;10.518;2024-02-26T07:50:07;4.10;99.90
7002;DHT22;3541;53.230;10.518;2024-02-26T07:52:33;4.10;99.90
7002;DHT22;3541;53.230;10.518;2024-02-26T07:55:00;4.20;99.90
7002;DHT22;3541;53.230;10.518;2024-02-26T07:57:26;4.20;99.90
7002;DHT22;3541;53.230;10.518;2024-02-26T07:59:53;4.20;99.90
7002;DHT22;3541;53.230;10.518;2024-02-26T08:02:21;4.30;99.90
7002;DHT22;3541;53.230;10.518;2024-02-26T08:04:49;4.40;99.90
7002;DHT22;3541;53.230;10.518;2024-02-26T08:07:15;4.30;99.90
7002;DHT22;3541;53.230;10.518;2024-02-26T08:09:42;4.30;99.90
7002;DHT22;3541;53.230;10.518;2024-02-26T08:12:08;4.30;99.90
7002;DHT22;3541;53.230;10.518;2024-02-26T08:14:35;4.40;99.90
7002;DHT22;3541;53.230;10.518;2024-02-26T08:17:02;4.40;99.90
7002;DHT22;3541;53.230;10.518;2024-02-26T08:19:28;4.40;99.90
7002;DHT22;3541;53.230;10.518;2024-02-26T08:21:56;4.40;99.90
7002;DHT22;3541;53.230;10.518;2024-02-26T08:24:23;4.40;99.90
7002;DHT22;3541;53.230;10.518;2024-02-26T08:26:49;4.40;99.90
7002;DHT22;3541;53.230;10.518;2024-02-26T08:29:16;4.40;99.90
7002;DHT22;3541;53.230;10.518;2024-02-26T08:31:42;4.50;99.90
7002;DHT22;3541;53.230;10.518;2024-02-26T08:34:09;4.50;99.90
7002;DHT22;3541;53.230;10.518;2024-02-26T08:36:36;4.50;99.90
7002;DHT22;3541;53.230;10.518;2024-02-26T08:39:04;4.60;99.90
7002;DHT22;3541;53.230;10.518;2024-02-26T08:41:30;4.50;99.90
7002;DHT22;3541;53.230;10.518;2024-02-26T08:43:57;4.50;99.90
7002;DHT22;3541;53.230;10.518;2024-02-26T08:46:24;4.60;99.90
7002;DHT22;3541;53.230;10.518;2024-02-26T08:48:50;4.60;99.90
7002;DHT22;3541;53.230;10.518;2024-02-26T08:51:17;4.60;99.90
7002;DHT22;3541;53.230;10.518;2024-02-26T08:53:44;4.60;99.90
7002;DHT22;3541;53.230;10.518;2024-02-26T08:56:12;4.60;99.90
7002;DHT22;3541;53.230;10.518;2024-02-26T08:58:42;4.60;99.90
7002;DHT22;3541;53.230;10.518;2024-02-26T09:01:08;4.60;99.90
7002;DHT22;3541;53.230;10.518;2024-02-26T09:03:35;4.60;99.90
7002;DHT22;3541;53.230;10.518;2024-02-26T09:06:02;4.60;99.90
7002;DHT22;3541;53.230;10.518;2024-02-26T09:08:28;4.60;99.90
7002;DHT22;3541;53.230;10.518;2024-02-26T09:10:55;4.60;99.90
7002;DHT22;3541;53.230;10.518;2024-02-26T09:13:23;4.60;99.90
7002;DHT22;3541;53.230;10.518;2024-02-26T09:15:49;4.60;99.90
7002;DHT22;3541;53.230;10.518;2024-02-26T09:18:16;4.60;99.90
7002;DHT22;3541;53.230;10.518;2024-02-26T09:20:42;4.60;99.90
7002;DHT22;3541;53.230;10.518;2024-02-26T09:23:09;4.60;99.90
7002;DHT22;3541;53.230;10.518;2024-02-26T09:25:36;4.60;99.90
7002;DHT22;3541;53.230;10.518;2024-02-26T09:28:02;4.70;99.90
7002;DHT22;3541;53.230;10.518;2024-02-26T09:30:31;4.70;99.90
7002;DHT22;3541;53.230;10.518;2024-02-26T09:32:57;4.80;99.90
7002;DHT22;3541;53.230;10.518;2024-02-26T09:35:24;4.80;99.90
7002;DHT22;3541;53.230;10.518;2024-02-26T09:37:52;4.80;99.90
7002;DHT22;3541;53.230;10.518;2024-02-26T09:40:19;4.80;99.90
7002;DHT22;3541;53.230;10.518;2024-02-26T09:42:45;4.90;99.90
7002;DHT22;3541;53.230;10.518;2024-02-26T09:45:17;4.90;99.90
7002;DHT22;3541;53.230;10.518;2024-02-26T09:47:47;4.90;99.90
7002;DHT22;3541;53.230;10.518;2024-02-26T09:50:16;4.90;99.90
7002;DHT22;3541;53.230;10.518;2024-02-26T09:52:43;4.90;99.90
7002;DHT22;3541;53.230;10.518;2024-02-26T09:55:10;4.90;99.90
7002;DHT22;3541;53.230;10.518;2024-02-26T09:57:37;5.00;99.90
7002;DHT22;3541;53.230;10.518;2024-02-26T10:00:05;5.00;99.90
7002;DHT22;3541;53.230;10.518;2024-02-26T10:02:35;5.00;99.90
7002;DHT22;3541;53.230;10.518;2024-02-26T10:05:05;5.00;99.90
7002;DHT22;3541;53.230;10.518;2024-02-26T10:07:34;5.10;99.90
7002;DHT22;3541;53.230;10.518;2024-02-26T10:10:01;5.10;99.90
7002;DHT22;3541;53.230;10.518;2024-02-26T10:12:30;5.20;99.90
7002;DHT22;3541;53.230;10.518;2024-02-26T10:14:57;5.10;99.90
7002;DHT22;3541;53.230;10.518;2024-02-26T10:17:25;5.20;99.90
7002;DHT22;3541;53.230;10.518;2024-02-26T10:19:51;5.20;99.90
7002;DHT22;3541;53.230;10.518;2024-02-26T10:22:23;5.20;99.90
7002;DHT22;3541;53.230;10.518;2024-02-26T10:24:49;5.30;99.90
7002;DHT22;3541;53.230;10.518;2024-02-26T10:27:16;5.40;99.90
7002;DHT22;3541;53.230;10.518;2024-02-26T10:29:42;5.40;99.90
7002;DHT22;3541;53.230;10.518;2024-02-26T10:32:10;5.50;99.90
7002;DHT22;3541;53.230;10.518;2024-02-26T10:34:40;5.50;99.90
7002;DHT22;3541;53.230;10.518;2024-02-26T10:37:07;5.50;99.90
7002;DHT22;3541;53.230;10.518;2024-02-26T10:39:36;5.60;99.90
7002;DHT22;3541;53.230;10.518;2024-02-26T10:42:03;5.70;99.90
7002;DHT22;3541;53.230;10.518;2024-02-26T10:44:35;5.80;99.90
7002;DHT22;3541;53.230;10.518;2024-02-26T10:47:01;5.90;99.90
7002;DHT22;3541;53.230;10.518;2024-02-26T10:49:28;5.90;99.90
7002;DHT22;3541;53.230;10.518;2024-02-26T10:51:56;6.00;99.90
7002;DHT22;3541;53.230;10.518;2024-02-26T10:54:26;6.10;99.90
7002;DHT22;3541;53.230;10.518;2024-02-26T10:56:56;6.20;99.90
7002;DHT22;3541;53.230;10.518;2024-02-26T10:59:23;6.30;99.90
7002;DHT22;3541;53.230;10.518;2024-02-26T11:01:50;6.40;99.90
7002;DHT22;3541;53.230;10.518;2024-02-26T11:04:17;6.40;99.90
7002;DHT22;3541;53.230;10.518;2024-02-26T11:06:45;6.50;99.90
7002;DHT22;3541;53.230;10.518;2024-02-26T11:09:13;6.60;99.90
7002;DHT22;3541;53.230;10.518;2024-02-26T11:11:41;6.70;99.90
7002;DHT22;3541;53.230;10.518;2024-02-26T11:14:09;6.80;99.90
7002;DHT22;3541;53.230;10.518;2024-02-26T11:16:39;6.90;99.90
7002;DHT22;3541;53.230;10.518;2024-02-26T11:19:06;6.90;99.90
7002;DHT22;3541;53.230;10.518;2024-02-26T11:21:35;7.00;99.90
7002;DHT22;3541;53.230;10.518;2024-02-26T11:24:07;7.00;99.90
7002;DHT22;3541;53.230;10.518;2024-02-26T11:26:38;7.10;99.90
7002;DHT22;3541;53.230;10.518;2024-02-26T11:29:09;7.10;99.90
7002;DHT22;3541;53.230;10.518;2024-02-26T11:31:37;7.20;99.90
7002;DHT22;3541;53.230;10.518;2024-02-26T11:34:04;7.20;99.90
7002;DHT22;3541;53.230;10.518;2024-02-26T11:36:32;7.20;99.90
7002;DHT22;3541;53.230;10.518;2024-02-26T11:38:59;7.20;99.90
7002;DHT22;3541;53.230;10.518;2024-02-26T11:41:26;7.20;99.90
7002;DHT22;3541;53.230;10.518;2024-02-26T11:43:58;7.20;99.90
7002;DHT22;3541;53.230;10.518;2024-02-26T11:46:28;7.30;99.90
7002;DHT22;3541;53.230;10.518;2024-02-26T11:48:59;7.30;99.90
7002;DHT22;3541;53.230;10.518;2024-02-26T11:51:26;7.40;99.90
7002;DHT22;3541;53.230;10.518;2024-02-26T11:53:54;7.50;99.90
7002;DHT22;3541;53.230;10.518;2024-02-26T11:56:23;7.60;99.90
7002;DHT22;3541;53.230;10.518;2024-02-26T11:58:59;7.70;99.90
7002;DHT22;3541;53.230;10.518;2024-02-26T12:01:47;7.70;99.90
7002;DHT22;3541;53.230;10.518;2024-02-26T12:04:17;7.80;99.90
7002;DHT22;3541;53.230;10.518;2024-02-26T12:06:46;7.80;99.90
7002;DHT22;3541;53.230;10.518;2024-02-26T12:09:13;7.80;99.90
7002;DHT22;3541;53.230;10.518;2024-02-26T12:11:40;7.90;99.90
7002;DHT22;3541;53.230;10.518;2024-02-26T12:14:09;7.90;99.90
7002;DHT22;3541;53.230;10.518;2024-02-26T12:16:37;8.00;99.90
7002;DHT22;3541;53.230;10.518;2024-02-26T12:19:06;8.00;99.90
7002;DHT22;3541;53.230;10.518;2024-02-26T12:21:34;8.00;99.90
7002;DHT22;3541;53.230;10.518;2024-02-26T12:24:11;8.00;99.90
7002;DHT22;3541;53.230;10.518;2024-02-26T12:26:38;8.10;99.90
7002;DHT22;3541;53.230;10.518;2024-02-26T12:29:05;8.10;99.90
7002;DHT22;3541;53.230;10.518;2024-02-26T12:31:32;8.00;99.90
7002;DHT22;3541;53.230;10.518;2024-02-26T12:34:00;8.10;99.90
7002;DHT22;3541;53.230;10.518;2024-02-26T12:36:28;8.10;99.90
7002;DHT22;3541;53.230;10.518;2024-02-26T12:38:55;8.10;99.90
7002;DHT22;3541;53.230;10.518;2024-02-26T12:41:22;8.20;99.90
7002;DHT22;3541;53.230;10.518;2024-02-26T12:43:49;8.20;99.90
7002;DHT22;3541;53.230;10.518;2024-02-26T12:46:15;8.30;99.90
7002;DHT22;3541;53.230;10.518;2024-02-26T12:48:43;8.30;99.90
7002;DHT22;3541;53.230;10.518;2024-02-26T12:51:10;8.30;99.90
7002;DHT22;3541;53.230;10.518;2024-02-26T12:53:38;8.40;99.90
7002;DHT22;3541;53.230;10.518;2024-02-26T12:56:06;8.40;99.90
7002;DHT22;3541;53.230;10.518;2024-02-26T12:58:34;8.40;99.90
7002;DHT22;3541;53.230;10.518;2024-02-26T13:01:03;8.40;99.90
7002;DHT22;3541;53.230;10.518;2024-02-26T13:03:30;8.50;99.90
7002;DHT22;3541;53.230;10.518;2024-02-26T13:05:57;8.50;99.90
7002;DHT22;3541;53.230;10.518;2024-02-26T13:08:24;8.50;99.90
7002;DHT22;3541;53.230;10.518;2024-02-26T13:10:52;8.50;99.90
7002;DHT22;3541;53.230;10.518;2024-02-26T13:13:19;8.60;99.90
7002;DHT22;3541;53.230;10.518;2024-02-26T13:15:46;8.70;99.90
7002;DHT22;3541;53.230;10.518;2024-02-26T13:18:13;8.70;99.90
7002;DHT22;3541;53.230;10.518;2024-02-26T13:20:40;8.70;99.90
7002;DHT22;3541;53.230;10.518;2024-02-26T13:23:09;8.70;99.90
7002;DHT22;3541;53.230;10.518;2024-02-26T13:25:37;8.80;99.90
7002;DHT22;3541;53.230;10.518;2024-02-26T13:28:07;8.70;99.90
7002;DHT22;3541;53.230;10.518;2024-02-26T13:30:35;8.80;99.90
7002;DHT22;3541;53.230;10.518;2024-02-26T13:33:08;8.90;99.90
7002;DHT22;3541;53.230;10.518;2024-02-26T13:35:35;9.00;99.90
7002;DHT22;3541;53.230;10.518;2024-02-26T13:38:02;9.10;99.90
7002;DHT22;3541;53.230;10.518;2024-02-26T13:40:29;9.20;99.90
7002;DHT22;3541;53.230;10.518;2024-02-26T13:42:55;9.30;99.90
7002;DHT22;3541;53.230;10.518;2024-02-26T13:45:23;9.30;99.90
7002;DHT22;3541;53.230;10.518;2024-02-26T13:47:50;9.40;99.90
7002;DHT22;3541;53.230;10.518;2024-02-26T13:50:17;9.40;99.90
7002;DHT22;3541;53.230;10.518;2024-02-26T13:52:46;9.50;99.90
7002;DHT22;3541;53.230;10.518;2024-02-26T13:55:13;9.50;99.90
7002;DHT22;3541;53.230;10.518;2024-02-26T13:57:40;9.50;99.90
7002;DHT22;3541;53.230;10.518;2024-02-26T14:00:09;9.40;99.90
7002;DHT22;3541;53.230;10.518;2024-02-26T14:02:37;9.30;99.90
7002;DHT22;3541;53.230;10.518;2024-02-26T14:05:05;9.30;99.90
7002;DHT22;3541;53.230;10.518;2024-02-26T14:07:31;9.30;99.90
7002;DHT22;3541;53.230;10.518;2024-02-26T14:09:58;9.30;99.90
7002;DHT22;3541;53.230;10.518;2024-02-26T14:12:25;9.20;99.90
7002;DHT22;3541;53.230;10.518;2024-02-26T14:14:51;9.10;99.90
7002;DHT22;3541;53.230;10.518;2024-02-26T14:17:19;9.10;99.90
7002;DHT22;3541;53.230;10.518;2024-02-26T14:19:47;9.00;99.90
7002;DHT22;3541;53.230;10.518;2024-02-26T14:22:15;9.00;99.90
7002;DHT22;3541;53.230;10.518;2024-02-26T14:24:42;9.00;99.90
7002;DHT22;3541;53.230;10.518;2024-02-26T14:27:10;8.90;99.90
7002;DHT22;3541;53.230;10.518;2024-02-26T14:29:37;8.90;99.90
7002;DHT22;3541;53.230;10.518;2024-02-26T14:32:05;8.90;99.90
7002;DHT22;3541;53.230;10.518;2024-02-26T14:34:32;8.80;99.90
7002;DHT22;3541;53.230;10.518;2024-02-26T14:37:00;8.80;99.90
7002;DHT22;3541;53.230;10.518;2024-02-26T14:39:27;8.70;99.90
7002;DHT22;3541;53.230;10.518;2024-02-26T14:41:54;8.70;99.90
7002;DHT22;3541;53.230;10.518;2024-02-26T14:44:21;8.70;99.90
7002;DHT22;3541;53.230;10.518;2024-02-26T14:46:47;8.60;99.90
7002;DHT22;3541;53.230;10.518;2024-02-26T14:49:14;8.60;99.90
7002;DHT22;3541;53.230;10.518;2024-02-26T14:51:40;8.60;99.90
7002;DHT22;3541;53.230;10.518;2024-02-26T14:54:09;8.50;99.90
7002;DHT22;3541;53.230;10.518;2024-02-26T14:56:36;8.60;99.90
7002;DHT22;3541;53.230;10.518;2024-02-26T14:59:03;8.60;99.90
7002;DHT22;3541;53.230;10.518;2024-02-26T15:01:30;8.60;99.90
7002;DHT22;3541;53.230;10.518;2024-02-26T15:03:57;8.50;99.90
7002;DHT22;3541;53.230;10.518;2024-02-26T15:06:24;8.50;99.90
7002;DHT22;3541;53.230;10.518;2024-02-26T15:08:51;8.50;99.90
7002;DHT22;3541;53.230;10.518;2024-02-26T15:11:19;8.50;99.90
7002;DHT22;3541;53.230;10.518;2024-02-26T15:13:46;8.40;99.90
7002;DHT22;3541;53.230;10.518;2024-02-26T15:16:17;8.40;99.90
7002;DHT22;3541;53.230;10.518;2024-02-26T15:18:44;8.40;99.90
7002;DHT22;3541;53.230;10.518;2024-02-26T15:21:10;8.40;99.90
7002;DHT22;3541;53.230;10.518;2024-02-26T15:23:38;8.50;99.90
7002;DHT22;3541;53.230;10.518;2024-02-26T15:26:05;8.40;99.90
7002;DHT22;3541;53.230;10.518;2024-02-26T15:28:32;8.40;99.90
7002;DHT22;3541;53.230;10.518;2024-02-26T15:30:59;8.40;99.90
7002;DHT22;3541;53.230;10.518;2024-02-26T15:33:26;8.40;99.90
7002;DHT22;3541;53.230;10.518;2024-02-26T15:35:52;8.40;99.90
7002;DHT22;3541;53.230;10.518;2024-02-26T15:38:19;8.30;99.90
7002;DHT22;3541;53.230;10.518;2024-02-26T15:40:45;8.30;99.90
7002;DHT22;3541;53.230;10.518;2024-02-26T15:43:12;8.30;99.90
7002;DHT22;3541;53.230;10.518;2024-02-26T15:45:42;8.20;99.90
7002;DHT22;3541;53.230;10.518;2024-02-26T15:48:08;8.20;99.90
7002;DHT22;3541;53.230;10.518;2024-02-26T15:50:35;8.10;99.90
7002;DHT22;3541;53.230;10.518;2024-02-26T15:53:03;8.10;99.90
7002;DHT22;3541;53.230;10.518;2024-02-26T15:55:30;8.10;99.90
7002;DHT22;3541;53.230;10.518;2024-02-26T15:57:57;8.10;99.90
7002;DHT22;3541;53.230;10.518;2024-02-26T16:00:24;8.00;99.90
7002;DHT22;3541;53.230;10.518;2024-02-26T16:02:51;8.00;99.90